Terminal Aerodrome Forecast
Issued by NWS Grand Forks, ND

Home | Current Version | Previous Version | Graphics & Text | Print | Product List | Glossary On
Versions: 1 2 3 4 5 6 7 8 9 10 11 12 13 14 15 16 17 18 19 20
000
FTUS43 KFGF 241925 AAA
TAFFAR
TAF AMD
KFAR 241925Z 2419/2518 35015KT P6SM SCT030
      TEMPO 2419/2421 BKN025
     FM250600 34008KT P6SM FEW110
     FM251200 26005KT P6SM BKN060=

USA.gov is the U.S. government's official web portal to all federal, state and local government web resources and services.